Time;durP1;ratioP1;P1;durP2;ratioP2;P2;SDS_P1;SDS_P2;PMS_P1;PMS_P2;Temp;Humidity;BMP_temperature;BMP_pressure;BME280_temperature;BME280_humidity;BME280_pressure;Samples;Min_cycle;Max_cycle;Signal;HPM_P1;HPM_P2
2021/12/04 00:00:07;;;;;;;0.70;0.70;;;;;18.60;98981.00;;;;2078968;28;20511;-48
2021/12/04 00:01:11;;;;;;;0.70;0.60;;;;;18.60;98985.00;;;;2080262;28;20236;-47
2021/12/04 00:02:12;;;;;;;1.17;0.70;;;;;18.60;98976.00;;;;2087612;28;20204;-48
2021/12/04 00:03:13;;;;;;;1.00;0.70;;;;;18.60;98969.00;;;;2087936;28;20217;-48
2021/12/04 00:04:19;;;;;;;1.63;0.70;;;;;18.60;98977.00;;;;2088728;28;20530;-48
2021/12/04 00:05:20;;;;;;;0.80;0.70;;;;;18.60;98978.00;;;;2085219;28;20479;-47
2021/12/04 00:07:22;;;;;;;0.80;0.70;;;;;18.60;98973.00;;;;2080568;28;20217;-48
2021/12/04 00:08:27;;;;;;;0.80;0.60;;;;;18.60;98976.00;;;;2079992;28;20737;-48
2021/12/04 00:09:29;;;;;;;1.35;0.68;;;;;18.60;98980.00;;;;2079838;28;20245;-47
2021/12/04 00:10:31;;;;;;;0.80;0.70;;;;;18.60;98972.00;;;;2079333;28;20706;-48
2021/12/04 00:11:32;;;;;;;0.85;0.75;;;;;18.60;98969.00;;;;2080185;28;20249;-48
2021/12/04 00:12:34;;;;;;;1.10;0.80;;;;;18.60;98969.00;;;;2079308;28;20213;-48
2021/12/04 00:13:34;;;;;;;0.98;0.80;;;;;18.60;98974.00;;;;2082356;28;20307;-46
2021/12/04 00:14:35;;;;;;;0.97;0.70;;;;;18.60;98963.00;;;;2081844;28;20799;-48
2021/12/04 00:15:36;;;;;;;0.70;0.70;;;;;18.60;98972.00;;;;2088535;28;20250;-48
2021/12/04 00:16:36;;;;;;;1.33;1.00;;;;;18.60;98962.00;;;;2088620;28;20216;-47
2021/12/04 00:17:37;;;;;;;1.03;0.70;;;;;18.60;98969.00;;;;2088527;28;20283;-47
2021/12/04 00:18:37;;;;;;;0.70;0.53;;;;;18.50;98961.00;;;;2088670;28;20809;-49
2021/12/04 00:19:38;;;;;;;0.90;0.80;;;;;18.60;98956.00;;;;2088488;28;20626;-47
2021/12/04 00:20:41;;;;;;;0.80;0.70;;;;;18.60;98961.00;;;;2083246;28;20221;-48
2021/12/04 00:21:42;;;;;;;0.93;0.70;;;;;18.60;98961.00;;;;2080175;28;20662;-48
2021/12/04 00:22:43;;;;;;;0.95;0.80;;;;;18.60;98960.00;;;;2079120;28;20214;-48
2021/12/04 00:23:43;;;;;;;0.70;0.53;;;;;18.60;98960.00;;;;2080225;28;20209;-48
2021/12/04 00:24:44;;;;;;;1.00;0.80;;;;;18.60;98948.00;;;;2080408;28;20824;-48
2021/12/04 00:25:44;;;;;;;0.77;0.60;;;;;18.60;98949.00;;;;2080017;28;20685;-47
2021/12/04 00:26:45;;;;;;;0.70;0.60;;;;;18.50;98946.00;;;;2080197;28;20217;-47
2021/12/04 00:27:45;;;;;;;0.80;0.70;;;;;18.50;98950.00;;;;2081608;28;20212;-48
2021/12/04 00:28:46;;;;;;;0.80;0.70;;;;;18.50;98940.00;;;;2088486;28;20486;-48
2021/12/04 00:29:46;;;;;;;0.93;0.70;;;;;18.50;98936.00;;;;2087900;28;20208;-48
2021/12/04 00:30:48;;;;;;;0.90;0.80;;;;;18.50;98933.00;;;;2087889;28;20213;-47
2021/12/04 00:31:50;;;;;;;0.85;0.80;;;;;18.50;98930.00;;;;2086152;28;20229;-47
2021/12/04 00:33:00;;;;;;;0.75;0.75;;;;;18.50;98938.00;;;;2085236;28;20221;-46
2021/12/04 00:34:01;;;;;;;0.80;0.50;;;;;18.50;98928.00;;;;2085288;28;20641;-48
2021/12/04 00:35:13;;;;;;;0.90;0.70;;;;;18.50;98927.00;;;;2088334;28;20243;-48
2021/12/04 00:36:27;;;;;;;0.60;0.50;;;;;18.50;98930.00;;;;2088407;28;20292;-47
2021/12/04 00:50:15;;;;;;;0.80;0.75;;;;;18.50;98924.00;;;;2069924;28;20722;-48
2021/12/04 00:51:16;;;;;;;0.80;0.60;;;;;18.50;98929.00;;;;2075020;28;20302;-47
2021/12/04 00:52:17;;;;;;;0.90;0.70;;;;;18.50;98924.00;;;;2079493;28;20205;-48
2021/12/04 00:53:17;;;;;;;0.70;0.63;;;;;18.30;98925.00;;;;2082956;28;20255;-47
2021/12/04 00:54:18;;;;;;;0.90;0.80;;;;;18.50;98927.00;;;;2087592;28;20220;-47
2021/12/04 00:55:18;;;;;;;0.80;0.80;;;;;18.50;98926.00;;;;2082984;28;20212;-47
2021/12/04 00:56:18;;;;;;;0.80;0.70;;;;;18.50;98919.00;;;;2087150;28;20244;-47
2021/12/04 00:57:19;;;;;;;0.80;0.70;;;;;18.50;98918.00;;;;2086500;28;20212;-48
2021/12/04 00:58:20;;;;;;;0.77;0.70;;;;;18.50;98915.00;;;;2087660;28;20378;-48
2021/12/04 00:59:20;;;;;;;1.90;0.90;;;;;18.50;98924.00;;;;2087217;28;20216;-47
2021/12/04 01:00:21;;;;;;;0.80;0.63;;;;;18.50;98923.00;;;;2086705;28;20385;-48
2021/12/04 01:01:21;;;;;;;0.80;0.60;;;;;18.50;98917.00;;;;2078696;28;20232;-47
2021/12/04 01:02:21;;;;;;;0.80;0.80;;;;;18.50;98914.00;;;;2086900;28;20235;-48
2021/12/04 01:03:22;;;;;;;0.80;0.70;;;;;18.50;98915.00;;;;2085586;28;20308;-48
2021/12/04 01:04:23;;;;;;;0.80;0.50;;;;;18.50;98906.00;;;;2087637;28;20462;-46
2021/12/04 01:05:23;;;;;;;0.70;0.60;;;;;18.50;98912.00;;;;2087940;28;20216;-48
2021/12/04 01:06:23;;;;;;;0.90;0.67;;;;;18.40;98912.00;;;;2088161;28;20207;-48
2021/12/04 01:07:25;;;;;;;0.90;0.60;;;;;18.50;98909.00;;;;2088148;28;20295;-48
2021/12/04 01:08:25;;;;;;;0.70;0.60;;;;;18.50;98906.00;;;;2088107;28;20275;-47
2021/12/04 01:09:25;;;;;;;0.83;0.53;;;;;18.50;98907.00;;;;2088214;28;20236;-48
2021/12/04 01:10:26;;;;;;;0.77;0.70;;;;;18.50;98906.00;;;;2087635;28;20211;-46
2021/12/04 01:11:26;;;;;;;1.83;0.90;;;;;18.50;98905.00;;;;2086884;28;20221;-46
2021/12/04 01:12:27;;;;;;;0.73;0.73;;;;;18.50;98903.00;;;;2087257;28;20263;-48
2021/12/04 01:13:28;;;;;;;0.77;0.70;;;;;18.40;98906.00;;;;2079890;28;20705;-46
2021/12/04 01:14:31;;;;;;;0.98;0.65;;;;;18.40;98903.00;;;;2079127;28;20347;-47
2021/12/04 01:15:32;;;;;;;0.82;0.60;;;;;18.40;98901.00;;;;2079089;28;20229;-46
2021/12/04 01:16:33;;;;;;;0.70;0.60;;;;;18.40;98893.00;;;;2079854;28;20214;-46
2021/12/04 01:17:35;;;;;;;1.15;0.73;;;;;18.50;98894.00;;;;2079333;28;20496;-48
2021/12/04 01:18:35;;;;;;;0.75;0.70;;;;;18.50;98892.00;;;;2078618;28;20236;-48
2021/12/04 01:19:36;;;;;;;0.80;0.80;;;;;18.50;98890.00;;;;2078716;28;20330;-47
2021/12/04 01:20:37;;;;;;;0.68;0.50;;;;;18.40;98889.00;;;;2078435;28;20296;-47
2021/12/04 01:21:37;;;;;;;0.70;0.50;;;;;18.50;98882.00;;;;2078770;28;20220;-48
2021/12/04 01:22:39;;;;;;;1.10;0.80;;;;;18.40;98898.00;;;;2079255;28;20352;-47
2021/12/04 01:23:39;;;;;;;0.70;0.60;;;;;18.40;98893.00;;;;2078350;28;20220;-46
2021/12/04 01:24:40;;;;;;;0.70;0.63;;;;;18.40;98885.00;;;;2077732;28;20277;-47
2021/12/04 01:25:40;;;;;;;0.70;0.60;;;;;18.40;98886.00;;;;2079587;28;20306;-47
2021/12/04 01:26:40;;;;;;;0.80;0.67;;;;;18.40;98878.00;;;;2079632;28;20699;-47
2021/12/04 01:27:42;;;;;;;0.70;0.60;;;;;18.40;98876.00;;;;2083183;28;20576;-50
2021/12/04 01:28:42;;;;;;;0.98;0.65;;;;;18.40;98876.00;;;;2088137;28;20853;-47
2021/12/04 01:29:43;;;;;;;0.83;0.67;;;;;18.40;98866.00;;;;2088260;28;20204;-48
2021/12/04 01:30:43;;;;;;;0.60;0.40;;;;;18.40;98876.00;;;;2085881;28;20335;-47
2021/12/04 01:31:44;;;;;;;0.93;0.70;;;;;18.40;98867.00;;;;2086066;28;20244;-48
2021/12/04 01:32:44;;;;;;;1.05;0.88;;;;;18.50;98876.00;;;;2088104;28;20212;-47
2021/12/04 01:33:45;;;;;;;0.73;0.73;;;;;18.40;98881.00;;;;2088237;28;20209;-47
2021/12/04 01:34:45;;;;;;;0.60;0.60;;;;;18.40;98871.00;;;;2085629;28;20297;-47
2021/12/04 01:35:46;;;;;;;0.60;0.40;;;;;18.40;98871.00;;;;2086645;28;20205;-48
2021/12/04 01:36:46;;;;;;;0.70;0.60;;;;;18.40;98866.00;;;;2080155;28;20220;-47
2021/12/04 01:37:46;;;;;;;0.90;0.70;;;;;18.40;98879.00;;;;2080021;28;20233;-47
2021/12/04 01:38:47;;;;;;;0.70;0.60;;;;;18.40;98881.00;;;;2079465;28;20221;-47
2021/12/04 01:39:47;;;;;;;0.70;0.60;;;;;18.40;98876.00;;;;2079932;28;20245;-47
2021/12/04 01:40:48;;;;;;;0.90;0.60;;;;;18.40;98875.00;;;;2079243;28;20209;-47
2021/12/04 01:41:49;;;;;;;0.87;0.67;;;;;18.40;98893.00;;;;2079772;28;20708;-48
2021/12/04 01:42:49;;;;;;;0.80;0.60;;;;;18.40;98875.00;;;;2079858;28;20209;-47
2021/12/04 01:43:50;;;;;;;1.00;0.50;;;;;18.40;98876.00;;;;2080040;28;20225;-47
2021/12/04 01:44:50;;;;;;;0.70;0.60;;;;;18.40;98867.00;;;;2080002;28;20221;-48
2021/12/04 01:45:54;;;;;;;0.60;0.50;;;;;18.40;98873.00;;;;2079460;28;20272;-48
2021/12/04 01:46:56;;;;;;;0.93;0.68;;;;;18.40;98877.00;;;;2079091;28;20213;-47
2021/12/04 01:48:00;;;;;;;0.70;0.60;;;;;18.40;98881.00;;;;2079268;28;20205;-48
2021/12/04 01:49:01;;;;;;;0.88;0.73;;;;;18.40;98882.00;;;;2084573;28;20213;-48
2021/12/04 01:50:02;;;;;;;0.80;0.70;;;;;18.40;98880.00;;;;2088119;28;20216;-47
2021/12/04 01:51:03;;;;;;;0.80;0.52;;;;;18.40;98881.00;;;;2087287;28;20252;-48
2021/12/04 01:52:04;;;;;;;0.98;0.73;;;;;18.40;98877.00;;;;2087790;28;20212;-47
2021/12/04 01:53:05;;;;;;;0.60;0.50;;;;;18.40;98879.00;;;;2087602;28;20287;-47
2021/12/04 01:54:06;;;;;;;0.80;0.60;;;;;18.40;98870.00;;;;2087343;28;20585;-47
2021/12/04 01:55:08;;;;;;;0.80;0.60;;;;;18.40;98869.00;;;;2087839;28;20216;-48
2021/12/04 01:56:08;;;;;;;0.70;0.57;;;;;18.40;98873.00;;;;2087960;28;20554;-48
2021/12/04 01:57:08;;;;;;;0.83;0.70;;;;;18.40;98872.00;;;;2088078;28;20307;-47
2021/12/04 01:58:09;;;;;;;0.90;0.70;;;;;18.40;98883.00;;;;2087097;28;20216;-47
2021/12/04 01:59:09;;;;;;;0.90;0.80;;;;;18.40;98870.00;;;;2087017;28;20668;-47
2021/12/04 02:00:10;;;;;;;0.70;0.60;;;;;18.40;98866.00;;;;2086680;28;20749;-47
2021/12/04 02:01:10;;;;;;;1.08;0.70;;;;;18.40;98874.00;;;;2087505;28;20244;-48
2021/12/04 02:02:11;;;;;;;0.60;0.40;;;;;18.40;98868.00;;;;2088020;28;20243;-47
2021/12/04 02:03:13;;;;;;;0.70;0.60;;;;;18.40;98862.00;;;;2087855;28;20219;-47
2021/12/04 02:04:13;;;;;;;0.70;0.50;;;;;18.40;98866.00;;;;2087914;28;20209;-47
2021/12/04 02:05:14;;;;;;;0.73;0.57;;;;;18.40;98867.00;;;;2087905;28;20205;-48
2021/12/04 02:06:15;;;;;;;0.70;0.60;;;;;18.30;98874.00;;;;2088268;28;20217;-48
2021/12/04 02:07:16;;;;;;;0.70;0.60;;;;;18.40;98872.00;;;;2088060;28;20669;-47
2021/12/04 02:08:22;;;;;;;0.77;0.63;;;;;18.40;98873.00;;;;2085794;28;20553;-50
2021/12/04 02:09:22;;;;;;;0.95;0.70;;;;;18.40;98870.00;;;;2087945;28;20259;-47
2021/12/04 02:10:23;;;;;;;0.70;0.50;;;;;18.40;98862.00;;;;2087068;28;20685;-48
2021/12/04 02:11:23;;;;;;;0.90;0.60;;;;;18.40;98872.00;;;;2081654;28;20205;-48
2021/12/04 02:12:24;;;;;;;0.73;0.63;;;;;18.40;98865.00;;;;2079001;28;20237;-48
2021/12/04 02:13:26;;;;;;;0.90;0.70;;;;;18.40;98863.00;;;;2079843;28;20201;-47
2021/12/04 02:14:26;;;;;;;0.80;0.60;;;;;18.30;98861.00;;;;2077166;28;20206;-47
2021/12/04 02:15:27;;;;;;;0.83;0.50;;;;;18.40;98863.00;;;;2079678;28;20206;-48
2021/12/04 02:16:27;;;;;;;0.60;0.60;;;;;18.30;98856.00;;;;2079646;28;20584;-47
2021/12/04 02:17:28;;;;;;;0.70;0.60;;;;;18.40;98864.00;;;;2079500;28;20764;-48
2021/12/04 02:18:29;;;;;;;0.60;0.50;;;;;18.40;98855.00;;;;2071777;28;21039;-47
2021/12/04 02:19:30;;;;;;;0.70;0.60;;;;;18.40;98854.00;;;;2070912;28;20856;-47
2021/12/04 02:20:33;;;;;;;0.80;0.60;;;;;18.30;98848.00;;;;2072486;28;20222;-47
2021/12/04 02:21:34;;;;;;;0.63;0.50;;;;;18.40;98852.00;;;;2087091;28;20209;-48
2021/12/04 02:22:34;;;;;;;0.70;0.50;;;;;18.40;98851.00;;;;2087894;28;20244;-48
2021/12/04 02:23:36;;;;;;;0.83;0.60;;;;;18.30;98846.00;;;;2087584;28;20213;-47
2021/12/04 02:24:36;;;;;;;0.90;0.73;;;;;18.30;98856.00;;;;2079747;28;20217;-47
2021/12/04 02:25:37;;;;;;;1.20;0.60;;;;;18.30;98841.00;;;;2079680;28;20224;-47
2021/12/04 02:26:37;;;;;;;0.70;0.70;;;;;18.30;98854.00;;;;2085298;28;20219;-47
2021/12/04 02:27:37;;;;;;;0.60;0.50;;;;;18.30;98850.00;;;;2087881;28;20217;-48
2021/12/04 02:28:38;;;;;;;0.70;0.60;;;;;18.30;98848.00;;;;2087705;28;20232;-47
2021/12/04 02:29:46;;;;;;;0.60;0.47;;;;;18.20;98845.00;;;;2087901;28;20346;-47
2021/12/04 02:30:48;;;;;;;1.35;0.50;;;;;18.30;98840.00;;;;2087342;28;20240;-47
2021/12/04 02:31:55;;;;;;;0.77;0.70;;;;;18.30;98848.00;;;;2087032;28;20235;-47
2021/12/04 02:32:56;;;;;;;0.60;0.50;;;;;18.40;98841.00;;;;2086965;28;20543;-48
2021/12/04 02:33:56;;;;;;;0.77;0.50;;;;;18.30;98844.00;;;;2086903;28;20592;-47
2021/12/04 02:34:56;;;;;;;0.80;0.70;;;;;18.30;98838.00;;;;2080202;28;20210;-47
2021/12/04 02:35:57;;;;;;;0.70;0.50;;;;;18.30;98843.00;;;;2079450;28;20224;-48
2021/12/04 02:36:58;;;;;;;0.80;0.60;;;;;18.30;98835.00;;;;2079347;28;20213;-48
2021/12/04 02:37:58;;;;;;;0.70;0.50;;;;;18.30;98833.00;;;;2079533;28;20457;-47
2021/12/04 02:38:58;;;;;;;0.80;0.70;;;;;18.30;98840.00;;;;2079514;28;20208;-47
2021/12/04 02:40:00;;;;;;;0.83;0.67;;;;;18.30;98831.00;;;;2079579;28;20947;-47
2021/12/04 02:41:00;;;;;;;0.93;0.57;;;;;18.30;98833.00;;;;2078947;28;20209;-47
2021/12/04 02:42:01;;;;;;;0.80;0.60;;;;;18.40;98839.00;;;;2079625;28;20240;-48
2021/12/04 02:43:01;;;;;;;1.10;0.60;;;;;18.30;98829.00;;;;2079486;28;20263;-47
2021/12/04 02:44:02;;;;;;;0.70;0.70;;;;;18.30;98831.00;;;;2078736;28;20271;-48
2021/12/04 02:45:05;;;;;;;0.85;0.70;;;;;18.30;98834.00;;;;2077522;28;20217;-47
2021/12/04 02:46:06;;;;;;;1.25;0.40;;;;;18.30;98831.00;;;;2079248;28;20227;-48
2021/12/04 02:47:07;;;;;;;0.90;0.60;;;;;18.30;98832.00;;;;2078929;28;20255;-47
2021/12/04 02:48:07;;;;;;;0.80;0.60;;;;;18.30;98834.00;;;;2078864;28;20201;-47
2021/12/04 02:49:09;;;;;;;1.27;0.60;;;;;18.30;98834.00;;;;2079402;28;20279;-47
2021/12/04 02:50:11;;;;;;;0.73;0.60;;;;;18.30;98830.00;;;;2079385;28;20213;-47
2021/12/04 02:51:15;;;;;;;0.90;0.60;;;;;18.30;98827.00;;;;2075400;28;20747;-48
2021/12/04 02:52:16;;;;;;;0.60;0.47;;;;;18.30;98826.00;;;;2078572;28;20732;-47
2021/12/04 02:53:17;;;;;;;0.70;0.50;;;;;18.30;98822.00;;;;2078660;28;20487;-48
2021/12/04 02:54:17;;;;;;;0.68;0.50;;;;;18.30;98820.00;;;;2077422;28;20620;-47
2021/12/04 02:55:18;;;;;;;0.70;0.60;;;;;18.30;98807.00;;;;2077765;28;20722;-47
2021/12/04 02:56:19;;;;;;;0.70;0.60;;;;;18.30;98805.00;;;;2079436;28;20217;-47
2021/12/04 02:57:20;;;;;;;0.70;0.60;;;;;18.30;98802.00;;;;2079303;28;20588;-47
2021/12/04 02:58:21;;;;;;;0.70;0.50;;;;;18.30;98795.00;;;;2078446;28;20209;-47
2021/12/04 02:59:21;;;;;;;0.70;0.60;;;;;18.30;98798.00;;;;2078690;28;20275;-47
2021/12/04 03:00:23;;;;;;;0.90;0.60;;;;;18.30;98791.00;;;;2072756;28;20217;-47
2021/12/04 03:01:24;;;;;;;0.90;0.50;;;;;18.30;98797.00;;;;2078632;28;20210;-51
2021/12/04 03:02:25;;;;;;;0.70;0.60;;;;;18.30;98791.00;;;;2079415;28;20213;-49
2021/12/04 03:03:26;;;;;;;0.80;0.50;;;;;18.30;98797.00;;;;2086814;28;20233;-47
2021/12/04 03:04:27;;;;;;;0.85;0.60;;;;;18.30;98796.00;;;;2087443;28;20209;-47
2021/12/04 03:05:28;;;;;;;0.60;0.50;;;;;18.30;98798.00;;;;2081290;28;20229;-47
2021/12/04 03:06:28;;;;;;;0.70;0.50;;;;;18.30;98805.00;;;;2086284;28;20963;-48
2021/12/04 03:07:30;;;;;;;0.70;0.67;;;;;18.30;98791.00;;;;2078556;28;20605;-47
2021/12/04 03:08:31;;;;;;;0.80;0.60;;;;;18.30;98773.00;;;;2078908;28;20218;-48
2021/12/04 03:09:31;;;;;;;0.70;0.57;;;;;18.30;98787.00;;;;2078669;28;20538;-48
2021/12/04 03:10:31;;;;;;;0.80;0.60;;;;;18.30;98778.00;;;;2077976;28;20623;-47
2021/12/04 03:11:32;;;;;;;0.70;0.60;;;;;18.30;98777.00;;;;2079151;28;20224;-47
2021/12/04 03:12:32;;;;;;;0.67;0.40;;;;;18.30;98781.00;;;;2079089;28;20213;-47
2021/12/04 03:13:32;;;;;;;0.60;0.50;;;;;18.30;98781.00;;;;2074554;28;20244;-47
2021/12/04 03:14:33;;;;;;;0.67;0.40;;;;;18.30;98769.00;;;;2085455;28;20217;-47
2021/12/04 03:15:34;;;;;;;0.73;0.60;;;;;18.30;98777.00;;;;2082038;28;20291;-47
2021/12/04 03:16:35;;;;;;;0.70;0.60;;;;;18.30;98774.00;;;;2079334;28;20292;-47
2021/12/04 03:17:36;;;;;;;0.68;0.50;;;;;18.30;98769.00;;;;2079085;28;20213;-48
2021/12/04 03:18:36;;;;;;;0.77;0.53;;;;;18.30;98751.00;;;;2078485;28;20214;-47
2021/12/04 03:19:38;;;;;;;0.70;0.50;;;;;18.30;98762.00;;;;2078190;28;20627;-47
2021/12/04 03:20:44;;;;;;;0.70;0.50;;;;;18.30;98743.00;;;;2078842;28;20664;-47
2021/12/04 03:21:45;;;;;;;0.80;0.52;;;;;18.30;98741.00;;;;2079113;28;20210;-47
2021/12/04 03:22:47;;;;;;;0.77;0.47;;;;;18.20;98740.00;;;;2078631;28;20293;-47
2021/12/04 03:23:57;;;;;;;0.70;0.52;;;;;18.20;98732.00;;;;2078718;28;20963;-47
2021/12/04 03:24:58;;;;;;;0.75;0.55;;;;;18.20;98735.00;;;;2078398;28;20314;-48
2021/12/04 03:26:00;;;;;;;0.70;0.50;;;;;18.30;98744.00;;;;2078604;28;20213;-47
2021/12/04 03:27:01;;;;;;;0.80;0.50;;;;;18.30;98733.00;;;;2077598;28;20218;-47
2021/12/04 03:28:05;;;;;;;0.60;0.40;;;;;18.30;98733.00;;;;2078284;28;20573;-47
2021/12/04 03:29:10;;;;;;;0.60;0.50;;;;;18.30;98738.00;;;;2082470;28;20220;-47
2021/12/04 03:30:23;;;;;;;0.75;0.60;;;;;18.30;98727.00;;;;2086951;28;20212;-48
2021/12/04 03:32:55;;;;;;;0.70;0.60;;;;;18.30;98733.00;;;;2086558;28;20619;-47
2021/12/04 03:40:09;;;;;;;0.85;0.65;;;;;18.30;98725.00;;;;2085599;28;20216;-47
2021/12/04 03:41:09;;;;;;;0.60;0.55;;;;;18.20;98722.00;;;;2086893;28;20213;-47
2021/12/04 03:42:10;;;;;;;0.60;0.50;;;;;18.20;98718.00;;;;2086179;28;20631;-47
2021/12/04 03:43:10;;;;;;;0.60;0.40;;;;;18.20;98720.00;;;;2087686;28;20217;-48
2021/12/04 03:44:10;;;;;;;1.67;0.60;;;;;18.20;98725.00;;;;2085967;28;20296;-47
2021/12/04 03:45:11;;;;;;;0.83;0.60;;;;;18.20;98731.00;;;;2086670;28;20204;-47
2021/12/04 03:46:15;;;;;;;0.63;0.53;;;;;18.20;98722.00;;;;2083239;28;20212;-47
2021/12/04 03:47:16;;;;;;;0.80;0.60;;;;;18.20;98726.00;;;;2086971;28;20456;-47
2021/12/04 03:49:31;;;;;;;0.70;0.60;;;;;18.20;98717.00;;;;2086403;28;20212;-48
2021/12/04 03:50:32;;;;;;;0.80;0.60;;;;;18.20;98713.00;;;;2085061;28;20332;-47
2021/12/04 03:51:32;;;;;;;0.60;0.40;;;;;18.20;98718.00;;;;2085097;28;20315;-48
2021/12/04 03:52:33;;;;;;;0.60;0.60;;;;;18.30;98714.00;;;;2080874;28;20210;-47
2021/12/04 03:53:33;;;;;;;1.10;0.50;;;;;18.20;98731.00;;;;2078345;28;20225;-47
2021/12/04 03:54:34;;;;;;;0.60;0.50;;;;;18.30;98721.00;;;;2078621;28;20224;-48
2021/12/04 03:55:35;;;;;;;0.60;0.50;;;;;18.20;98725.00;;;;2085433;28;20221;-47
2021/12/04 03:56:36;;;;;;;0.87;0.50;;;;;18.20;98719.00;;;;2086518;28;20589;-47
2021/12/04 03:57:44;;;;;;;0.70;0.55;;;;;18.20;98715.00;;;;2084402;28;20236;-48
2021/12/04 03:58:44;;;;;;;0.63;0.40;;;;;18.20;98690.00;;;;2078063;28;20221;-47
2021/12/04 03:59:46;;;;;;;0.60;0.60;;;;;18.20;98712.00;;;;2094844;28;20235;-47
2021/12/04 04:00:47;;;;;;;0.60;0.50;;;;;18.20;98727.00;;;;2092807;28;20668;-48
2021/12/04 04:01:47;;;;;;;0.73;0.70;;;;;18.20;98717.00;;;;2086021;28;20201;-48
2021/12/04 04:02:47;;;;;;;0.60;0.50;;;;;18.20;98720.00;;;;2087191;28;20580;-47
2021/12/04 04:03:48;;;;;;;0.70;0.60;;;;;18.20;98716.00;;;;2087000;28;20216;-47
2021/12/04 04:04:49;;;;;;;0.80;0.50;;;;;18.20;98713.00;;;;2086803;28;20299;-47
2021/12/04 04:05:49;;;;;;;0.77;0.60;;;;;18.20;98711.00;;;;2085694;28;20221;-47
2021/12/04 04:06:50;;;;;;;0.93;0.60;;;;;18.20;98713.00;;;;2078756;28;20264;-47
2021/12/04 04:07:50;;;;;;;0.70;0.57;;;;;18.20;98672.00;;;;2074532;28;20229;-47
2021/12/04 04:08:51;;;;;;;0.83;0.50;;;;;18.20;98718.00;;;;2077966;28;20217;-47
2021/12/04 04:09:51;;;;;;;0.77;0.60;;;;;18.20;98720.00;;;;2078580;28;20311;-48
2021/12/04 04:10:53;;;;;;;0.77;0.40;;;;;18.20;98715.00;;;;2078547;28;20634;-47
2021/12/04 04:11:54;;;;;;;0.93;0.60;;;;;18.20;98721.00;;;;2083103;28;20249;-47
2021/12/04 04:12:55;;;;;;;0.80;0.50;;;;;18.20;98721.00;;;;2085829;28;20290;-48
2021/12/04 04:13:56;;;;;;;0.93;0.47;;;;;18.20;98715.00;;;;2086489;28;20224;-47
2021/12/04 04:14:56;;;;;;;0.70;0.60;;;;;18.20;98710.00;;;;2086719;28;20565;-47
2021/12/04 04:15:59;;;;;;;0.70;0.60;;;;;18.20;98717.00;;;;2086731;28;20224;-47
2021/12/04 04:16:59;;;;;;;0.70;0.50;;;;;18.20;98709.00;;;;2085725;28;21106;-47
2021/12/04 04:18:00;;;;;;;0.80;0.53;;;;;18.20;98705.00;;;;2086703;28;20350;-47
2021/12/04 04:19:01;;;;;;;1.07;0.73;;;;;18.20;98705.00;;;;2078472;28;20556;-47
2021/12/04 04:20:03;;;;;;;0.70;0.60;;;;;18.20;98705.00;;;;2078539;28;20445;-47
2021/12/04 04:21:04;;;;;;;0.70;0.50;;;;;18.20;98699.00;;;;2078355;28;20268;-48
2021/12/04 04:22:04;;;;;;;0.60;0.50;;;;;18.20;98698.00;;;;2078333;28;20213;-47
2021/12/04 04:23:05;;;;;;;0.60;0.40;;;;;18.20;98701.00;;;;2078407;28;20288;-47
2021/12/04 04:24:25;;;;;;;0.60;0.40;;;;;18.20;98694.00;;;;2077467;28;20233;-47
2021/12/04 04:25:25;;;;;;;0.90;0.80;;;;;18.20;98697.00;;;;2084562;28;20835;-47
2021/12/04 04:26:26;;;;;;;0.80;0.60;;;;;18.20;98701.00;;;;2086535;28;20224;-48
2021/12/04 04:27:26;;;;;;;0.87;0.50;;;;;18.20;98697.00;;;;2085797;28;20220;-48
2021/12/04 04:28:26;;;;;;;0.70;0.40;;;;;18.20;98692.00;;;;2085220;28;20221;-47
2021/12/04 04:29:27;;;;;;;0.80;0.50;;;;;18.20;98699.00;;;;2086647;28;20401;-48
2021/12/04 04:30:27;;;;;;;0.70;0.60;;;;;18.20;98700.00;;;;2086438;28;20227;-47
2021/12/04 04:31:28;;;;;;;0.60;0.43;;;;;18.20;98704.00;;;;2086760;28;20252;-48
2021/12/04 04:32:30;;;;;;;0.60;0.50;;;;;18.20;98703.00;;;;2086575;28;20209;-47
2021/12/04 04:33:36;;;;;;;0.60;0.50;;;;;18.20;98703.00;;;;2086405;28;20447;-47
2021/12/04 04:34:38;;;;;;;0.90;0.57;;;;;18.20;98706.00;;;;2086237;28;20217;-47
2021/12/04 04:35:39;;;;;;;0.65;0.50;;;;;18.20;98706.00;;;;2085618;28;20225;-48
2021/12/04 05:01:19;;;;;;;0.65;0.50;;;;;18.10;98672.00;;;;2085205;28;20236;-48
2021/12/04 05:02:30;;;;;;;0.70;0.40;;;;;18.20;98676.00;;;;2087015;28;20495;-47
2021/12/04 05:11:21;;;;;;;0.70;0.50;;;;;18.10;98670.00;;;;2088010;28;20250;-47
2021/12/04 05:13:28;;;;;;;0.60;0.40;;;;;18.20;98668.00;;;;2088544;28;20220;-47
2021/12/04 05:14:28;;;;;;;0.70;0.60;;;;;18.10;98669.00;;;;2088411;28;20208;-48
2021/12/04 05:16:50;;;;;;;0.80;0.50;;;;;18.20;98671.00;;;;2083103;28;20223;-47
2021/12/04 05:19:01;;;;;;;0.70;0.40;;;;;18.20;98667.00;;;;2079964;28;20213;-47
2021/12/04 05:20:01;;;;;;;0.60;0.50;;;;;18.20;98665.00;;;;2072891;28;20976;-47
2021/12/04 05:21:06;;;;;;;0.57;0.40;;;;;18.20;98664.00;;;;2079839;28;20217;-47
2021/12/04 05:22:07;;;;;;;0.60;0.40;;;;;18.20;98673.00;;;;2079714;28;20444;-48
2021/12/04 05:23:09;;;;;;;0.67;0.50;;;;;18.10;98675.00;;;;2077723;28;20576;-48
2021/12/04 05:24:10;;;;;;;0.80;0.60;;;;;18.10;98672.00;;;;2080068;28;20305;-47
2021/12/04 05:25:10;;;;;;;0.70;0.50;;;;;18.10;98676.00;;;;2071440;28;20581;-47
2021/12/04 05:26:14;;;;;;;0.60;0.47;;;;;18.20;98678.00;;;;2079833;28;20652;-47
2021/12/04 05:27:16;;;;;;;0.60;0.50;;;;;18.20;98677.00;;;;2079462;28;20347;-47
2021/12/04 05:28:17;;;;;;;0.60;0.50;;;;;18.10;98677.00;;;;2077919;28;20229;-49
2021/12/04 05:29:17;;;;;;;0.60;0.40;;;;;18.20;98675.00;;;;2079705;28;20217;-47
2021/12/04 05:30:17;;;;;;;0.60;0.50;;;;;18.10;98670.00;;;;2080620;28;20221;-47
2021/12/04 05:31:18;;;;;;;0.80;0.67;;;;;18.10;98675.00;;;;2088133;28;20217;-48
2021/12/04 05:32:19;;;;;;;0.60;0.40;;;;;18.10;98676.00;;;;2087134;28;20240;-47
2021/12/04 05:33:19;;;;;;;0.80;0.60;;;;;18.20;98672.00;;;;2087755;28;20769;-47
2021/12/04 05:34:20;;;;;;;0.70;0.50;;;;;18.10;98675.00;;;;2088365;28;20692;-47
2021/12/04 05:35:21;;;;;;;0.70;0.40;;;;;18.20;98671.00;;;;2086972;28;20229;-47
2021/12/04 05:36:23;;;;;;;0.60;0.40;;;;;18.20;98666.00;;;;2088283;28;20569;-48
2021/12/04 05:37:24;;;;;;;0.60;0.40;;;;;18.10;98669.00;;;;2088164;28;20224;-47
2021/12/04 05:38:26;;;;;;;0.60;0.50;;;;;18.10;98668.00;;;;2087165;28;20312;-47
2021/12/04 05:39:28;;;;;;;0.68;0.50;;;;;18.10;98664.00;;;;2079000;28;20213;-47
2021/12/04 05:40:28;;;;;;;0.60;0.50;;;;;18.10;98663.00;;;;2078951;28;20288;-48
2021/12/04 05:41:29;;;;;;;0.60;0.40;;;;;18.10;98658.00;;;;2080037;28;20577;-47
2021/12/04 05:42:29;;;;;;;0.53;0.40;;;;;18.10;98654.00;;;;2079923;28;20445;-48
2021/12/04 05:43:30;;;;;;;0.60;0.40;;;;;18.10;98666.00;;;;2087849;28;20209;-47
2021/12/04 05:44:32;;;;;;;0.70;0.45;;;;;18.10;98664.00;;;;2081257;28;20726;-47
2021/12/04 05:45:37;;;;;;;0.60;0.50;;;;;18.20;98654.00;;;;2079941;28;20229;-48
2021/12/04 05:46:42;;;;;;;0.75;0.55;;;;;18.20;98659.00;;;;2080312;28;20398;-47
2021/12/04 05:47:56;;;;;;;0.60;0.50;;;;;18.10;98663.00;;;;2080055;28;20209;-48
2021/12/04 05:49:22;;;;;;;0.70;0.50;;;;;18.10;98659.00;;;;2084787;28;20218;-47
2021/12/04 05:52:51;;;;;;;0.65;0.47;;;;;18.10;98657.00;;;;2087849;28;20209;-47
2021/12/04 05:55:19;;;;;;;0.70;0.47;;;;;18.10;98660.00;;;;2062258;28;20325;-47
2021/12/04 05:56:20;;;;;;;0.80;0.50;;;;;18.10;98660.00;;;;2088738;28;20231;-48
2021/12/04 05:57:20;;;;;;;0.70;0.50;;;;;18.10;98656.00;;;;2087347;28;20255;-47
2021/12/04 05:58:31;;;;;;;0.70;0.50;;;;;18.10;98649.00;;;;2083633;28;20224;-48
2021/12/04 05:59:31;;;;;;;0.70;0.50;;;;;18.10;98621.00;;;;2080691;28;20268;-47
2021/12/04 06:00:32;;;;;;;0.60;0.40;;;;;18.10;98657.00;;;;2079305;28;20311;-47
2021/12/04 06:01:32;;;;;;;0.70;0.50;;;;;18.10;98656.00;;;;2079385;28;20267;-47
2021/12/04 06:02:33;;;;;;;0.70;0.60;;;;;18.10;98656.00;;;;2079429;28;20210;-47
2021/12/04 06:03:33;;;;;;;0.60;0.50;;;;;18.10;98651.00;;;;2084183;28;20280;-47
2021/12/04 06:04:33;;;;;;;0.60;0.53;;;;;18.10;98656.00;;;;2087219;28;20221;-48
2021/12/04 06:05:36;;;;;;;0.60;0.43;;;;;18.10;98653.00;;;;2087074;28;20752;-48
2021/12/04 06:06:36;;;;;;;0.60;0.43;;;;;18.10;98648.00;;;;2088046;28;20622;-47
2021/12/04 06:07:38;;;;;;;0.80;0.43;;;;;18.10;98650.00;;;;2088086;28;20366;-48
2021/12/04 06:08:39;;;;;;;0.60;0.60;;;;;18.10;98646.00;;;;2088007;28;20213;-48
2021/12/04 06:09:40;;;;;;;0.70;0.50;;;;;18.10;98653.00;;;;2088154;28;20712;-47
2021/12/04 06:10:41;;;;;;;0.60;0.50;;;;;18.10;98652.00;;;;2087589;28;20217;-47